^^
Station Historical Data
Daily Summary for August 5, 2017 Units:  Metric    English   Both
« Previous Day
Next Day »
Daily Weekly Monthly Yearly Custom
  High: Low: Average:
Temperature: 21.2 °C 2.5 °C 10.4 °C
Dew Point: 4 °C -3.8 °C 1.1 °C
Humidity: 89% 20% 59%
Wind Speed: 13km/h 0km/h 1.8km/h
Wind Gust: 14.5km/h - -
Wind- - SSW
Pressure: 1023.6 hPa 1019.9 hPa -
Precipitation: 0 mm    
Historical Graphs
 
 
Tabular Data for August 5, 2017
Time Temperature Dew Point Pressure Wind Wind Speed Wind Gust Humidity Rainfall Rate (Hourly) solar Conditions
01:30 7.8 °C 2.7 °C 1020.5 hPa South 7.9 km/h 8 km/h 70% 0 mm 0.0 W/m2
01:35 7.6 °C 2.7 °C 1020.5 hPa South 7.9 km/h 9.7 km/h 71% 0 mm 0.0 W/m2
01:45 7.5 °C 2.8 °C 1020.2 hPa South 6.4 km/h 8 km/h 72% 0 mm 0.0 W/m2
01:50 7.5 °C 3 °C 1020.2 hPa South 11.1 km/h 11.3 km/h 73% 0 mm 0.0 W/m2
02:00 7.4 °C 2.9 °C 1020.2 hPa South 6.4 km/h 9.7 km/h 73% 0 mm 0.0 W/m2
02:05 7.3 °C 2.8 °C 1020.2 hPa South 1.4 km/h 4.8 km/h 73% 0 mm 0.0 W/m2
02:10 7.2 °C 2.7 °C 1020.2 hPa Calm     73% 0 mm 0.0 W/m2
02:16 7.1 °C 2.6 °C 1020.2 hPa Calm     73% 0 mm 0.0 W/m2
02:21 6.9 °C 2.6 °C 1020.2 hPa Calm     74% 0 mm 0.0 W/m2
02:26 6.8 °C 2.7 °C 1020.2 hPa Calm     75% 0 mm 0.0 W/m2
02:37 6.4 °C 2.3 °C 1020.2 hPa Calm     75% 0 mm 0.0 W/m2
02:42 6.3 °C 2.4 °C 1019.9 hPa Calm     76% 0 mm 0.0 W/m2
02:47 6.4 °C 2.7 °C 1019.9 hPa Calm     77% 0 mm 0.0 W/m2
02:57 6.1 °C 2.2 °C 1019.9 hPa Calm     76% 0 mm 0.0 W/m2
03:02 5.9 °C 2.2 °C 1020.2 hPa Calm     77% 0 mm 0.0 W/m2
03:08 5.7 °C 2 °C 1020.2 hPa Calm     77% 0 mm 0.0 W/m2
03:18 5.4 °C 1.9 °C 1020.2 hPa Calm     78% 0 mm 0.0 W/m2
03:23 5.1 °C 1.4 °C 1020.2 hPa Calm     77% 0 mm 0.0 W/m2
03:28 5 °C 1.8 °C 1020.2 hPa Calm     80% 0 mm 0.0 W/m2
03:33 5 °C 2 °C 1020.2 hPa Calm     81% 0 mm 0.0 W/m2
03:44 5.2 °C 1.9 °C 1020.5 hPa Calm     79% 0 mm 0.0 W/m2
03:49 5.1 °C 1.8 °C 1020.5 hPa Calm     79% 0 mm 0.0 W/m2
03:54 4.8 °C 1.5 °C 1020.5 hPa Calm     79% 0 mm 0.0 W/m2
03:59 4.6 °C 1.4 °C 1020.5 hPa Calm     80% 0 mm 0.0 W/m2
04:05 4.6 °C 1.8 °C 1020.5 hPa Calm     82% 0 mm 0.0 W/m2
04:10 4.7 °C 2.1 °C 1020.5 hPa Calm     83% 0 mm 0.0 W/m2
04:15 4.8 °C 2.2 °C 1020.5 hPa Calm     83% 0 mm 0.0 W/m2
04:36 4.6 °C 1.8 °C 1020.9 hPa Calm     82% 0 mm 0.0 W/m2
04:41 4.6 °C 1.8 °C 1020.9 hPa Calm     82% 0 mm 0.0 W/m2
04:46 4.7 °C 1.7 °C 1021.2 hPa Calm     81% 0 mm 0.0 W/m2
04:51 4.4 °C 1.4 °C 1021.2 hPa Calm     81% 0 mm 0.0 W/m2
04:56 4.3 °C 1.2 °C 1021.2 hPa Calm     80% 0 mm 0.0 W/m2
05:02 4 °C 0.9 °C 1021.2 hPa Calm     80% 0 mm 0.0 W/m2
05:07 3.7 °C 0.7 °C 1021.2 hPa Calm     81% 0 mm 0.0 W/m2
05:13 3.4 °C 0.6 °C 1021.2 hPa Calm     82% 0 mm 0.0 W/m2
05:18 3.3 °C 0.7 °C 1021.2 hPa Calm     83% 0 mm 0.0 W/m2
05:23 3.2 °C 0.6 °C 1021.2 hPa Calm     83% 0 mm 0.0 W/m2
05:28 3.2 °C 0.9 °C 1021.6 hPa Calm     85% 0 mm 0.0 W/m2
05:33 3.3 °C 1 °C 1021.6 hPa Calm     85% 0 mm 0.0 W/m2
05:44 3.1 °C 0.5 °C 1021.6 hPa Calm     83% 0 mm 0.0 W/m2
05:49 2.9 °C 0.5 °C 1021.9 hPa Calm     84% 0 mm 0.0 W/m2
05:54 2.8 °C 0.5 °C 1021.9 hPa Calm     85% 0 mm 0.0 W/m2
06:00 2.7 °C 0.3 °C 1021.9 hPa Calm     84% 0 mm 0.0 W/m2
06:05 2.5 °C 0.1 °C 1021.9 hPa Calm     84% 0 mm 0.0 W/m2
06:14 2.5 °C 0.4 °C 1022.2 hPa Calm     86% 0 mm 0.0 W/m2
06:19 2.5 °C 0.6 °C 1022.2 hPa Calm     87% 0 mm 0.0 W/m2
06:25 2.5 °C 0.6 °C 1022.2 hPa Calm     87% 0 mm 0.0 W/m2
06:30 2.6 °C 0.8 °C 1022.2 hPa Calm     88% 0 mm 5.0 W/m2
06:35 2.7 °C 0.9 °C 1022.6 hPa Calm     88% 0 mm 7.0 W/m2
06:40 2.9 °C 1.3 °C 1022.6 hPa Calm     89% 0 mm 9.0 W/m2
06:45 3.1 °C 1.5 °C 1022.6 hPa Calm     89% 0 mm 11.0 W/m2
06:50 3.2 °C 1.4 °C 1022.6 hPa Calm     88% 0 mm 12.0 W/m2
06:56 3.4 °C 1.8 °C 1022.9 hPa Calm     89% 0 mm 14.0 W/m2
07:01 3.6 °C 1.6 °C 1022.9 hPa Calm     87% 0 mm 18.0 W/m2
07:06 3.7 °C 2.1 °C 1022.9 hPa Calm     89% 0 mm 49.0 W/m2
07:11 4.2 °C 2.2 °C 1022.9 hPa Calm     87% 0 mm 81.0 W/m2
07:19 4.5 °C 2.2 °C 1022.9 hPa Calm     85% 0 mm 97.0 W/m2
07:30 5.5 °C 3 °C 1022.9 hPa Calm     84% 0 mm 137.0 W/m2
07:40 6.6 °C 3 °C 1023.2 hPa Calm     78% 0 mm 178.0 W/m2
07:47 7.6 °C 3.3 °C 1023.2 hPa Calm     74% 0 mm 213.0 W/m2
08:01 8.3 °C 2.1 °C 1023.2 hPa Calm     65% 0 mm 250.0 W/m2
08:07 8.8 °C 2.4 °C 1023.2 hPa Calm     64% 0 mm 281.0 W/m2
08:23 9.8 °C 1.9 °C 1023.2 hPa Calm     58% 0 mm 325.0 W/m2
08:38 10.5 °C 4 °C 1023.6 hPa Calm     64% 0 mm 367.0 W/m2
08:59 11 °C 3.8 °C 1023.2 hPa Calm     61% 0 mm 410.0 W/m2
09:09 11.7 °C 3.5 °C 1023.6 hPa Calm     57% 0 mm 448.0 W/m2
09:19 12.3 °C 3.8 °C 1023.6 hPa Calm     56% 0 mm 473.0 W/m2
09:39 12.9 °C 3.8 °C 1023.6 hPa Calm     54% 0 mm 506.0 W/m2
09:45 13.2 °C 3.8 °C 1023.6 hPa Calm     53% 0 mm 529.0 W/m2
09:59 13.4 °C 4 °C 1023.6 hPa Calm     53% 0 mm 550.0 W/m2
10:07 13.8 °C 3.6 °C 1023.6 hPa Calm     50% 0 mm 568.0 W/m2
10:10 13.9 °C 3.6 °C 1023.6 hPa Calm     50% 0 mm 577.0 W/m2
10:17 14.2 °C 3.9 °C 1023.6 hPa Calm     50% 0 mm 585.0 W/m2
10:22 14.5 °C 3.6 °C 1023.2 hPa Calm     48% 0 mm 592.0 W/m2
10:26 14.8 °C 3.6 °C 1023.2 hPa Calm     47% 0 mm 601.0 W/m2
10:38 15.1 °C 3.3 °C 1023.2 hPa Calm     45% 0 mm 615.0 W/m2
11:38 18.1 °C 1.6 °C 1022.6 hPa Calm     33% 0 mm 664.0 W/m2
11:48 18.4 °C 1 °C 1022.6 hPa Calm     31% 0 mm 664.0 W/m2
12:03 18.3 °C 0.9 °C 1022.2 hPa Calm     31% 0 mm 659.0 W/m2
12:11 18.1 °C 0.7 °C 1022.2 hPa Calm   4.8 km/h 31% 0 mm 659.0 W/m2
12:14 18.4 °C 1.4 °C 1021.9 hPa Calm   8 km/h 32% 0 mm 657.0 W/m2
12:22 18.7 °C 0.8 °C 1021.9 hPa Calm     30% 0 mm 656.0 W/m2
12:32 18.6 °C 0.7 °C 1021.6 hPa South 3.2 km/h 12.9 km/h 30% 0 mm 650.0 W/m2
12:41 18.8 °C 0.9 °C 1021.6 hPa Calm     30% 0 mm 640.0 W/m2
12:44 19 °C 1 °C 1021.6 hPa Calm     30% 0 mm 638.0 W/m2
12:51 19.1 °C 0.6 °C 1021.2 hPa Calm     29% 0 mm 635.0 W/m2
13:01 19.3 °C 0.8 °C 1021.2 hPa Calm     29% 0 mm 626.0 W/m2
13:41 20.3 °C -0.4 °C 1020.5 hPa Calm     25% 0 mm 568.0 W/m2
13:56 20.4 °C -0.3 °C 1020.5 hPa Calm     25% 0 mm 547.0 W/m2
14:08 20.5 °C -0.2 °C 1020.5 hPa Calm     25% 0 mm 529.0 W/m2
14:22 20.4 °C -0.3 °C 1020.2 hPa Calm     25% 0 mm 494.0 W/m2
14:28 20.6 °C -0.7 °C 1020.2 hPa Calm     24% 0 mm 475.0 W/m2
14:43 20.3 °C -0.9 °C 1020.2 hPa Calm   8 km/h 24% 0 mm 438.0 W/m2
14:58 20.6 °C -1.3 °C 1020.2 hPa Calm     23% 0 mm 410.0 W/m2
15:08 20.7 °C -1.8 °C 1020.2 hPa Calm     22% 0 mm 385.0 W/m2
15:19 20.8 °C -1.7 °C 1020.2 hPa Calm   1.6 km/h 22% 0 mm 357.0 W/m2
15:24 21.1 °C -1.5 °C 1020.2 hPa Calm     22% 0 mm 325.0 W/m2
15:34 21.2 °C -1.4 °C 1020.5 hPa SSW 6.4 km/h 9.7 km/h 22% 0 mm 295.0 W/m2
15:55 20.9 °C -1 °C 1020.5 hPa Calm     23% 0 mm 251.0 W/m2
16:00 20.9 °C -0.4 °C 1020.5 hPa SSW 11.1 km/h 11.3 km/h 24% 0 mm 218.0 W/m2
16:10 20.8 °C -1.7 °C 1020.5 hPa SSW 11.1 km/h 12.9 km/h 22% 0 mm 179.0 W/m2
16:25 20.6 °C -3.2 °C 1020.5 hPa SSW 13 km/h 14.5 km/h 20% 0 mm 123.0 W/m2
16:40 20.4 °C -3.3 °C 1020.5 hPa SSW 9.7 km/h 11.3 km/h 20% 0 mm 74.0 W/m2
16:55 19.9 °C -1.3 °C 1020.5 hPa SSW 9.7 km/h 14.5 km/h 24% 0 mm 32.0 W/m2
17:11 19.2 °C 0.2 °C 1020.9 hPa SSW 13 km/h 13 km/h 28% 0 mm 11.0 W/m2
18:26 16.8 °C -1.3 °C 1021.6 hPa SSW 11.1 km/h 12.9 km/h 29% 0 mm 0.0 W/m2
18:47 15.8 °C -1.3 °C 1021.9 hPa SSW 7.9 km/h 9.7 km/h 31% 0 mm 0.0 W/m2
19:07 15.2 °C -1.4 °C 1022.2 hPa SSW 6.4 km/h 8 km/h 32% 0 mm 0.0 W/m2
19:22 14.7 °C -1 °C 1022.2 hPa SSW 9.7 km/h 9.7 km/h 34% 0 mm 0.0 W/m2
19:37 14.3 °C -1.4 °C 1022.2 hPa SSW 3.2 km/h 6.4 km/h 34% 0 mm 0.0 W/m2
19:52 13.2 °C -1.2 °C 1022.6 hPa SSW 4.7 km/h 6.4 km/h 37% 0 mm 0.0 W/m2
20:11 12.6 °C -1 °C 1022.6 hPa SSW 4.7 km/h 6.4 km/h 39% 0 mm 0.0 W/m2
20:18 12.6 °C -1 °C 1022.6 hPa SSW 6.4 km/h 8 km/h 39% 0 mm 0.0 W/m2
20:38 12.7 °C -1.3 °C 1022.6 hPa SSW 6.4 km/h 8 km/h 38% 0 mm 0.0 W/m2
21:24 13 °C -2.9 °C 1022.9 hPa SSW 4.7 km/h 4.8 km/h 33% 0 mm 0.0 W/m2
21:38 12.4 °C -3.8 °C 1023.2 hPa SSW 4.7 km/h 6.4 km/h 32% 0 mm 0.0 W/m2
21:47 12 °C -3.8 °C 1023.2 hPa SSW 13 km/h 14.5 km/h 33% 0 mm 0.0 W/m2
Canyon Roadhouse, Fishriver Canyon, Namibia
Compliments of Weather Underground - 2.25 mb